sensor_id;sensor_type;location;lat;lon;timestamp;P1;durP1;ratioP1;P2;durP2;ratioP2
14316;SDS011;7242;50.858;6.586;2023-06-24T00:01:52;7.97;;;7.17;;
14316;SDS011;7242;50.858;6.586;2023-06-24T00:04:53;9.70;;;7.97;;
14316;SDS011;7242;50.858;6.586;2023-06-24T00:07:54;7.77;;;7.03;;
14316;SDS011;7242;50.858;6.586;2023-06-24T00:10:57;9.17;;;7.70;;
14316;SDS011;7242;50.858;6.586;2023-06-24T00:13:58;9.63;;;8.00;;
14316;SDS011;7242;50.858;6.586;2023-06-24T00:16:58;9.27;;;8.30;;
14316;SDS011;7242;50.858;6.586;2023-06-24T00:19:59;8.70;;;7.90;;
14316;SDS011;7242;50.858;6.586;2023-06-24T00:23:00;9.83;;;8.00;;
14316;SDS011;7242;50.858;6.586;2023-06-24T00:26:01;9.50;;;8.70;;
14316;SDS011;7242;50.858;6.586;2023-06-24T00:29:02;12.20;;;9.63;;
14316;SDS011;7242;50.858;6.586;2023-06-24T00:32:03;10.63;;;9.20;;
14316;SDS011;7242;50.858;6.586;2023-06-24T00:35:04;12.37;;;8.77;;
14316;SDS011;7242;50.858;6.586;2023-06-24T00:38:06;12.40;;;9.27;;
14316;SDS011;7242;50.858;6.586;2023-06-24T00:41:08;10.23;;;8.80;;
14316;SDS011;7242;50.858;6.586;2023-06-24T00:44:09;9.40;;;8.60;;
14316;SDS011;7242;50.858;6.586;2023-06-24T00:47:09;9.40;;;8.53;;
14316;SDS011;7242;50.858;6.586;2023-06-24T00:50:11;10.37;;;8.80;;
14316;SDS011;7242;50.858;6.586;2023-06-24T00:53:12;12.10;;;9.47;;
14316;SDS011;7242;50.858;6.586;2023-06-24T00:56:13;10.07;;;9.07;;
14316;SDS011;7242;50.858;6.586;2023-06-24T00:59:18;13.10;;;9.10;;
14316;SDS011;7242;50.858;6.586;2023-06-24T01:02:22;9.73;;;8.77;;
14316;SDS011;7242;50.858;6.586;2023-06-24T01:05:28;10.60;;;9.30;;
14316;SDS011;7242;50.858;6.586;2023-06-24T01:08:29;11.17;;;9.60;;
14316;SDS011;7242;50.858;6.586;2023-06-24T01:11:30;10.97;;;9.80;;
14316;SDS011;7242;50.858;6.586;2023-06-24T01:14:32;10.67;;;9.47;;
14316;SDS011;7242;50.858;6.586;2023-06-24T01:24:23;12.23;;;10.37;;
14316;SDS011;7242;50.858;6.586;2023-06-24T01:34:15;14.83;;;12.23;;
14316;SDS011;7242;50.858;6.586;2023-06-24T01:40:25;15.27;;;11.50;;
14316;SDS011;7242;50.858;6.586;2023-06-24T01:43:28;12.43;;;11.13;;
14316;SDS011;7242;50.858;6.586;2023-06-24T01:46:29;14.07;;;11.20;;
14316;SDS011;7242;50.858;6.586;2023-06-24T01:49:30;14.20;;;10.87;;
14316;SDS011;7242;50.858;6.586;2023-06-24T01:52:33;11.13;;;9.90;;
14316;SDS011;7242;50.858;6.586;2023-06-24T01:55:35;13.07;;;10.20;;
14316;SDS011;7242;50.858;6.586;2023-06-24T01:58:38;14.17;;;10.40;;
14316;SDS011;7242;50.858;6.586;2023-06-24T02:01:40;15.63;;;10.10;;
14316;SDS011;7242;50.858;6.586;2023-06-24T02:04:42;14.50;;;9.63;;
14316;SDS011;7242;50.858;6.586;2023-06-24T02:07:44;13.83;;;9.53;;
14316;SDS011;7242;50.858;6.586;2023-06-24T02:10:48;14.90;;;10.03;;
14316;SDS011;7242;50.858;6.586;2023-06-24T02:13:49;15.20;;;10.40;;
14316;SDS011;7242;50.858;6.586;2023-06-24T02:16:52;14.30;;;9.33;;
14316;SDS011;7242;50.858;6.586;2023-06-24T02:19:57;11.87;;;9.20;;
14316;SDS011;7242;50.858;6.586;2023-06-24T02:23:00;9.90;;;8.40;;
14316;SDS011;7242;50.858;6.586;2023-06-24T02:26:01;13.07;;;8.50;;
14316;SDS011;7242;50.858;6.586;2023-06-24T02:29:07;12.23;;;8.77;;
14316;SDS011;7242;50.858;6.586;2023-06-24T02:32:09;14.50;;;8.10;;
14316;SDS011;7242;50.858;6.586;2023-06-24T02:35:10;14.30;;;8.03;;
14316;SDS011;7242;50.858;6.586;2023-06-24T02:38:12;11.70;;;7.87;;
14316;SDS011;7242;50.858;6.586;2023-06-24T02:41:12;10.00;;;7.63;;
14316;SDS011;7242;50.858;6.586;2023-06-24T02:44:14;12.30;;;8.10;;
14316;SDS011;7242;50.858;6.586;2023-06-24T02:47:14;11.27;;;7.77;;
14316;SDS011;7242;50.858;6.586;2023-06-24T02:50:17;11.77;;;7.40;;
14316;SDS011;7242;50.858;6.586;2023-06-24T02:53:23;15.40;;;8.07;;
14316;SDS011;7242;50.858;6.586;2023-06-24T02:56:25;14.93;;;7.83;;
14316;SDS011;7242;50.858;6.586;2023-06-24T02:59:28;10.20;;;7.60;;
14316;SDS011;7242;50.858;6.586;2023-06-24T03:02:32;8.20;;;7.23;;
14316;SDS011;7242;50.858;6.586;2023-06-24T03:05:34;9.20;;;7.10;;
14316;SDS011;7242;50.858;6.586;2023-06-24T03:08:36;15.17;;;8.40;;
14316;SDS011;7242;50.858;6.586;2023-06-24T03:11:41;12.67;;;7.40;;
14316;SDS011;7242;50.858;6.586;2023-06-24T03:14:44;16.93;;;8.53;;
14316;SDS011;7242;50.858;6.586;2023-06-24T03:17:45;15.10;;;8.47;;
14316;SDS011;7242;50.858;6.586;2023-06-24T03:20:46;11.40;;;7.93;;
14316;SDS011;7242;50.858;6.586;2023-06-24T03:23:51;12.53;;;8.20;;
14316;SDS011;7242;50.858;6.586;2023-06-24T03:26:52;11.83;;;7.63;;
14316;SDS011;7242;50.858;6.586;2023-06-24T03:29:59;13.13;;;7.87;;
14316;SDS011;7242;50.858;6.586;2023-06-24T03:33:00;9.20;;;8.20;;
14316;SDS011;7242;50.858;6.586;2023-06-24T03:36:00;13.90;;;8.07;;
14316;SDS011;7242;50.858;6.586;2023-06-24T03:39:07;11.50;;;7.77;;
14316;SDS011;7242;50.858;6.586;2023-06-24T03:42:08;12.53;;;8.10;;
14316;SDS011;7242;50.858;6.586;2023-06-24T03:45:08;14.50;;;8.67;;
14316;SDS011;7242;50.858;6.586;2023-06-24T03:48:10;11.23;;;8.73;;
14316;SDS011;7242;50.858;6.586;2023-06-24T03:51:10;15.70;;;8.80;;
14316;SDS011;7242;50.858;6.586;2023-06-24T03:54:12;11.50;;;7.43;;
14316;SDS011;7242;50.858;6.586;2023-06-24T03:57:13;13.80;;;7.87;;
14316;SDS011;7242;50.858;6.586;2023-06-24T04:00:14;17.23;;;8.20;;
14316;SDS011;7242;50.858;6.586;2023-06-24T04:03:20;10.60;;;7.80;;
14316;SDS011;7242;50.858;6.586;2023-06-24T04:06:21;12.13;;;8.20;;
14316;SDS011;7242;50.858;6.586;2023-06-24T04:09:22;13.47;;;7.90;;
14316;SDS011;7242;50.858;6.586;2023-06-24T04:12:27;13.87;;;7.70;;
14316;SDS011;7242;50.858;6.586;2023-06-24T04:15:27;9.17;;;6.73;;
14316;SDS011;7242;50.858;6.586;2023-06-24T04:18:28;8.50;;;7.40;;
14316;SDS011;7242;50.858;6.586;2023-06-24T04:21:29;8.27;;;7.33;;
14316;SDS011;7242;50.858;6.586;2023-06-24T04:24:30;12.30;;;7.17;;
14316;SDS011;7242;50.858;6.586;2023-06-24T04:27:31;11.67;;;7.10;;
14316;SDS011;7242;50.858;6.586;2023-06-24T04:30:33;8.30;;;6.43;;
14316;SDS011;7242;50.858;6.586;2023-06-24T04:33:39;9.20;;;6.30;;
14316;SDS011;7242;50.858;6.586;2023-06-24T04:36:39;9.57;;;6.53;;
14316;SDS011;7242;50.858;6.586;2023-06-24T04:39:43;9.90;;;7.20;;
14316;SDS011;7242;50.858;6.586;2023-06-24T04:42:44;8.53;;;7.00;;
14316;SDS011;7242;50.858;6.586;2023-06-24T04:45:45;8.90;;;7.27;;
14316;SDS011;7242;50.858;6.586;2023-06-24T04:48:46;8.13;;;7.27;;
14316;SDS011;7242;50.858;6.586;2023-06-24T04:51:47;10.40;;;7.23;;
14316;SDS011;7242;50.858;6.586;2023-06-24T04:54:48;8.37;;;6.67;;
14316;SDS011;7242;50.858;6.586;2023-06-24T04:57:49;11.40;;;7.63;;
14316;SDS011;7242;50.858;6.586;2023-06-24T05:00:50;9.97;;;8.10;;
14316;SDS011;7242;50.858;6.586;2023-06-24T05:03:51;9.93;;;7.90;;
14316;SDS011;7242;50.858;6.586;2023-06-24T05:06:52;11.00;;;7.80;;
14316;SDS011;7242;50.858;6.586;2023-06-24T05:09:52;12.47;;;7.87;;
14316;SDS011;7242;50.858;6.586;2023-06-24T05:12:53;10.47;;;8.27;;
14316;SDS011;7242;50.858;6.586;2023-06-24T05:15:54;10.43;;;8.27;;
14316;SDS011;7242;50.858;6.586;2023-06-24T05:18:55;9.30;;;7.43;;
14316;SDS011;7242;50.858;6.586;2023-06-24T05:21:56;10.53;;;7.60;;
14316;SDS011;7242;50.858;6.586;2023-06-24T05:24:57;9.87;;;6.87;;
14316;SDS011;7242;50.858;6.586;2023-06-24T05:27:58;13.83;;;7.70;;
14316;SDS011;7242;50.858;6.586;2023-06-24T05:30:59;7.70;;;6.73;;
14316;SDS011;7242;50.858;6.586;2023-06-24T05:34:00;9.23;;;7.07;;
14316;SDS011;7242;50.858;6.586;2023-06-24T05:37:01;9.50;;;7.47;;
14316;SDS011;7242;50.858;6.586;2023-06-24T05:40:02;9.43;;;6.20;;
14316;SDS011;7242;50.858;6.586;2023-06-24T05:43:05;7.67;;;6.87;;
14316;SDS011;7242;50.858;6.586;2023-06-24T05:46:05;9.87;;;7.53;;
14316;SDS011;7242;50.858;6.586;2023-06-24T05:49:06;9.43;;;7.67;;
14316;SDS011;7242;50.858;6.586;2023-06-24T05:52:07;8.90;;;7.60;;
14316;SDS011;7242;50.858;6.586;2023-06-24T05:55:08;7.90;;;6.77;;
14316;SDS011;7242;50.858;6.586;2023-06-24T05:58:09;9.83;;;6.80;;
14316;SDS011;7242;50.858;6.586;2023-06-24T06:01:10;8.80;;;6.57;;
14316;SDS011;7242;50.858;6.586;2023-06-24T06:04:11;8.27;;;6.77;;
14316;SDS011;7242;50.858;6.586;2023-06-24T06:07:12;8.30;;;6.17;;
14316;SDS011;7242;50.858;6.586;2023-06-24T06:10:12;8.47;;;6.73;;
14316;SDS011;7242;50.858;6.586;2023-06-24T06:13:17;8.00;;;6.70;;
14316;SDS011;7242;50.858;6.586;2023-06-24T06:16:18;7.37;;;6.30;;
14316;SDS011;7242;50.858;6.586;2023-06-24T06:19:19;8.13;;;6.87;;
14316;SDS011;7242;50.858;6.586;2023-06-24T06:22:20;9.07;;;6.80;;
14316;SDS011;7242;50.858;6.586;2023-06-24T06:25:21;7.67;;;6.60;;
14316;SDS011;7242;50.858;6.586;2023-06-24T06:28:22;8.10;;;6.70;;
14316;SDS011;7242;50.858;6.586;2023-06-24T06:31:22;7.93;;;6.53;;
14316;SDS011;7242;50.858;6.586;2023-06-24T06:34:25;8.73;;;6.47;;
14316;SDS011;7242;50.858;6.586;2023-06-24T06:37:26;6.47;;;5.67;;
14316;SDS011;7242;50.858;6.586;2023-06-24T06:40:27;8.57;;;6.00;;
14316;SDS011;7242;50.858;6.586;2023-06-24T06:43:28;6.90;;;5.07;;
14316;SDS011;7242;50.858;6.586;2023-06-24T06:46:29;8.37;;;4.47;;
14316;SDS011;7242;50.858;6.586;2023-06-24T06:49:29;9.17;;;4.47;;
14316;SDS011;7242;50.858;6.586;2023-06-24T06:52:30;7.10;;;4.47;;
14316;SDS011;7242;50.858;6.586;2023-06-24T06:55:31;6.32;;;4.57;;
14316;SDS011;7242;50.858;6.586;2023-06-24T06:58:31;7.55;;;3.83;;
14316;SDS011;7242;50.858;6.586;2023-06-24T07:01:32;8.45;;;5.05;;
14316;SDS011;7242;50.858;6.586;2023-06-24T07:04:33;6.10;;;4.72;;
14316;SDS011;7242;50.858;6.586;2023-06-24T07:07:34;6.05;;;4.28;;
14316;SDS011;7242;50.858;6.586;2023-06-24T07:10:35;7.22;;;4.05;;
14316;SDS011;7242;50.858;6.586;2023-06-24T07:13:35;6.43;;;4.78;;
14316;SDS011;7242;50.858;6.586;2023-06-24T07:16:36;5.22;;;4.38;;
14316;SDS011;7242;50.858;6.586;2023-06-24T07:19:38;7.00;;;4.85;;
14316;SDS011;7242;50.858;6.586;2023-06-24T07:22:38;7.47;;;5.45;;
14316;SDS011;7242;50.858;6.586;2023-06-24T07:25:39;6.88;;;4.45;;
14316;SDS011;7242;50.858;6.586;2023-06-24T07:28:40;9.50;;;4.85;;
14316;SDS011;7242;50.858;6.586;2023-06-24T07:31:40;6.88;;;4.90;;
14316;SDS011;7242;50.858;6.586;2023-06-24T07:34:41;6.53;;;4.82;;
14316;SDS011;7242;50.858;6.586;2023-06-24T07:37:42;7.72;;;3.65;;
14316;SDS011;7242;50.858;6.586;2023-06-24T07:40:43;7.55;;;4.10;;
14316;SDS011;7242;50.858;6.586;2023-06-24T07:43:44;7.72;;;4.90;;
14316;SDS011;7242;50.858;6.586;2023-06-24T07:46:45;5.45;;;4.13;;
14316;SDS011;7242;50.858;6.586;2023-06-24T07:49:45;8.30;;;5.25;;
14316;SDS011;7242;50.858;6.586;2023-06-24T07:52:46;9.73;;;4.82;;
14316;SDS011;7242;50.858;6.586;2023-06-24T07:55:47;8.30;;;4.50;;
14316;SDS011;7242;50.858;6.586;2023-06-24T07:58:48;6.20;;;4.32;;
14316;SDS011;7242;50.858;6.586;2023-06-24T08:01:49;6.35;;;4.35;;
14316;SDS011;7242;50.858;6.586;2023-06-24T08:04:50;6.38;;;4.00;;
14316;SDS011;7242;50.858;6.586;2023-06-24T08:07:51;7.60;;;3.83;;
14316;SDS011;7242;50.858;6.586;2023-06-24T08:10:52;5.28;;;3.88;;
14316;SDS011;7242;50.858;6.586;2023-06-24T08:13:52;8.85;;;5.32;;
14316;SDS011;7242;50.858;6.586;2023-06-24T08:16:53;8.88;;;5.00;;
14316;SDS011;7242;50.858;6.586;2023-06-24T08:19:54;8.25;;;4.70;;
14316;SDS011;7242;50.858;6.586;2023-06-24T08:22:55;10.50;;;4.85;;
14316;SDS011;7242;50.858;6.586;2023-06-24T08:25:56;12.43;;;5.53;;
14316;SDS011;7242;50.858;6.586;2023-06-24T08:28:56;7.93;;;5.38;;
14316;SDS011;7242;50.858;6.586;2023-06-24T08:31:59;6.85;;;4.95;;
14316;SDS011;7242;50.858;6.586;2023-06-24T08:35:00;7.82;;;4.30;;
14316;SDS011;7242;50.858;6.586;2023-06-24T08:38:00;8.63;;;4.50;;
14316;SDS011;7242;50.858;6.586;2023-06-24T08:41:01;9.00;;;4.97;;
14316;SDS011;7242;50.858;6.586;2023-06-24T08:44:02;8.40;;;5.35;;
14316;SDS011;7242;50.858;6.586;2023-06-24T08:47:03;9.50;;;5.47;;
14316;SDS011;7242;50.858;6.586;2023-06-24T08:50:05;7.97;;;4.85;;
14316;SDS011;7242;50.858;6.586;2023-06-24T08:53:08;9.25;;;5.25;;
14316;SDS011;7242;50.858;6.586;2023-06-24T08:56:09;8.15;;;4.95;;
14316;SDS011;7242;50.858;6.586;2023-06-24T08:59:11;12.35;;;5.80;;
14316;SDS011;7242;50.858;6.586;2023-06-24T09:02:12;10.48;;;5.22;;
14316;SDS011;7242;50.858;6.586;2023-06-24T09:05:13;9.60;;;5.18;;
14316;SDS011;7242;50.858;6.586;2023-06-24T09:08:14;9.13;;;4.68;;
14316;SDS011;7242;50.858;6.586;2023-06-24T09:11:21;7.63;;;4.68;;
14316;SDS011;7242;50.858;6.586;2023-06-24T09:14:26;6.07;;;4.32;;
14316;SDS011;7242;50.858;6.586;2023-06-24T09:17:30;8.27;;;4.73;;
14316;SDS011;7242;50.858;6.586;2023-06-24T09:20:31;7.03;;;4.63;;
14316;SDS011;7242;50.858;6.586;2023-06-24T09:23:39;5.13;;;4.10;;
14316;SDS011;7242;50.858;6.586;2023-06-24T09:26:41;7.35;;;4.55;;
14316;SDS011;7242;50.858;6.586;2023-06-24T09:29:43;6.17;;;4.67;;
14316;SDS011;7242;50.858;6.586;2023-06-24T09:32:44;7.00;;;4.80;;
14316;SDS011;7242;50.858;6.586;2023-06-24T09:35:45;6.40;;;4.10;;
14316;SDS011;7242;50.858;6.586;2023-06-24T09:38:46;6.60;;;3.97;;
14316;SDS011;7242;50.858;6.586;2023-06-24T09:41:49;6.33;;;3.67;;
14316;SDS011;7242;50.858;6.586;2023-06-24T09:44:56;6.50;;;4.77;;
14316;SDS011;7242;50.858;6.586;2023-06-24T09:47:57;4.03;;;3.00;;
14316;SDS011;7242;50.858;6.586;2023-06-24T09:51:04;8.57;;;4.20;;
14316;SDS011;7242;50.858;6.586;2023-06-24T09:54:08;6.93;;;4.30;;
14316;SDS011;7242;50.858;6.586;2023-06-24T09:57:10;9.17;;;4.50;;
14316;SDS011;7242;50.858;6.586;2023-06-24T10:00:15;9.17;;;4.30;;
14316;SDS011;7242;50.858;6.586;2023-06-24T10:03:17;7.33;;;4.30;;
14316;SDS011;7242;50.858;6.586;2023-06-24T10:06:18;8.17;;;3.90;;
14316;SDS011;7242;50.858;6.586;2023-06-24T10:09:19;7.77;;;5.00;;
14316;SDS011;7242;50.858;6.586;2023-06-24T10:12:20;7.50;;;4.07;;
14316;SDS011;7242;50.858;6.586;2023-06-24T10:15:21;5.77;;;3.80;;
14316;SDS011;7242;50.858;6.586;2023-06-24T10:24:48;7.60;;;4.40;;
14316;SDS011;7242;50.858;6.586;2023-06-24T10:27:55;8.43;;;5.00;;
14316;SDS011;7242;50.858;6.586;2023-06-24T10:30:55;7.47;;;4.73;;
14316;SDS011;7242;50.858;6.586;2023-06-24T10:33:58;5.70;;;3.60;;
14316;SDS011;7242;50.858;6.586;2023-06-24T10:37:12;5.23;;;3.40;;
14316;SDS011;7242;50.858;6.586;2023-06-24T10:40:17;4.70;;;3.50;;
14316;SDS011;7242;50.858;6.586;2023-06-24T10:43:38;6.57;;;3.50;;
14316;SDS011;7242;50.858;6.586;2023-06-24T10:46:39;4.37;;;3.63;;
14316;SDS011;7242;50.858;6.586;2023-06-24T10:49:40;6.83;;;3.50;;
14316;SDS011;7242;50.858;6.586;2023-06-24T10:52:45;4.90;;;3.80;;
14316;SDS011;7242;50.858;6.586;2023-06-24T10:55:47;7.40;;;4.07;;
14316;SDS011;7242;50.858;6.586;2023-06-24T10:58:56;6.40;;;3.60;;
14316;SDS011;7242;50.858;6.586;2023-06-24T11:01:57;4.37;;;3.10;;
14316;SDS011;7242;50.858;6.586;2023-06-24T11:04:59;6.03;;;3.20;;
14316;SDS011;7242;50.858;6.586;2023-06-24T11:08:00;5.83;;;3.90;;
14316;SDS011;7242;50.858;6.586;2023-06-24T11:11:01;5.80;;;4.00;;
14316;SDS011;7242;50.858;6.586;2023-06-24T11:14:03;4.63;;;3.30;;
14316;SDS011;7242;50.858;6.586;2023-06-24T11:17:04;5.93;;;3.33;;
14316;SDS011;7242;50.858;6.586;2023-06-24T11:20:09;5.23;;;3.30;;
14316;SDS011;7242;50.858;6.586;2023-06-24T11:23:10;4.63;;;3.43;;
14316;SDS011;7242;50.858;6.586;2023-06-24T11:26:11;6.33;;;3.73;;
14316;SDS011;7242;50.858;6.586;2023-06-24T11:29:12;5.00;;;3.83;;
14316;SDS011;7242;50.858;6.586;2023-06-24T11:32:13;4.33;;;3.40;;
14316;SDS011;7242;50.858;6.586;2023-06-24T11:35:14;5.50;;;3.40;;
14316;SDS011;7242;50.858;6.586;2023-06-24T11:38:15;5.30;;;3.10;;
14316;SDS011;7242;50.858;6.586;2023-06-24T11:41:20;5.63;;;3.20;;
14316;SDS011;7242;50.858;6.586;2023-06-24T11:44:21;3.77;;;2.60;;
14316;SDS011;7242;50.858;6.586;2023-06-24T11:47:24;3.87;;;2.87;;
14316;SDS011;7242;50.858;6.586;2023-06-24T11:50:25;4.20;;;3.10;;
14316;SDS011;7242;50.858;6.586;2023-06-24T11:53:30;3.37;;;3.03;;
14316;SDS011;7242;50.858;6.586;2023-06-24T11:56:35;3.10;;;2.50;;
14316;SDS011;7242;50.858;6.586;2023-06-24T11:59:36;5.70;;;2.77;;
14316;SDS011;7242;50.858;6.586;2023-06-24T12:02:37;5.33;;;3.00;;
14316;SDS011;7242;50.858;6.586;2023-06-24T12:05:38;7.47;;;2.87;;
14316;SDS011;7242;50.858;6.586;2023-06-24T12:08:44;5.00;;;2.40;;
14316;SDS011;7242;50.858;6.586;2023-06-24T12:11:45;3.77;;;2.70;;
14316;SDS011;7242;50.858;6.586;2023-06-24T12:14:46;3.33;;;2.60;;
14316;SDS011;7242;50.858;6.586;2023-06-24T12:17:47;5.43;;;2.87;;
14316;SDS011;7242;50.858;6.586;2023-06-24T12:20:48;4.03;;;2.70;;
14316;SDS011;7242;50.858;6.586;2023-06-24T12:23:48;4.03;;;2.33;;
14316;SDS011;7242;50.858;6.586;2023-06-24T12:26:50;4.37;;;2.73;;
14316;SDS011;7242;50.858;6.586;2023-06-24T12:29:51;5.77;;;2.50;;
14316;SDS011;7242;50.858;6.586;2023-06-24T12:32:52;5.03;;;2.70;;
14316;SDS011;7242;50.858;6.586;2023-06-24T12:35:53;5.90;;;2.50;;
14316;SDS011;7242;50.858;6.586;2023-06-24T12:38:54;3.23;;;2.30;;
14316;SDS011;7242;50.858;6.586;2023-06-24T12:41:55;3.43;;;2.50;;
14316;SDS011;7242;50.858;6.586;2023-06-24T12:44:56;5.47;;;2.77;;
14316;SDS011;7242;50.858;6.586;2023-06-24T12:47:57;5.90;;;2.50;;
14316;SDS011;7242;50.858;6.586;2023-06-24T12:50:59;3.70;;;2.50;;
14316;SDS011;7242;50.858;6.586;2023-06-24T12:54:00;2.80;;;2.30;;
14316;SDS011;7242;50.858;6.586;2023-06-24T12:57:01;2.50;;;2.30;;
14316;SDS011;7242;50.858;6.586;2023-06-24T13:00:03;4.77;;;2.50;;
14316;SDS011;7242;50.858;6.586;2023-06-24T13:03:05;2.97;;;2.13;;
14316;SDS011;7242;50.858;6.586;2023-06-24T13:06:06;4.33;;;2.50;;
14316;SDS011;7242;50.858;6.586;2023-06-24T13:09:07;3.43;;;2.53;;
14316;SDS011;7242;50.858;6.586;2023-06-24T13:12:07;3.63;;;2.40;;
14316;SDS011;7242;50.858;6.586;2023-06-24T13:15:09;2.83;;;2.30;;
14316;SDS011;7242;50.858;6.586;2023-06-24T13:18:10;3.53;;;2.33;;
14316;SDS011;7242;50.858;6.586;2023-06-24T13:21:10;3.70;;;2.03;;
14316;SDS011;7242;50.858;6.586;2023-06-24T13:24:11;3.43;;;2.40;;
14316;SDS011;7242;50.858;6.586;2023-06-24T13:27:12;4.77;;;2.50;;
14316;SDS011;7242;50.858;6.586;2023-06-24T13:30:14;3.10;;;2.23;;
14316;SDS011;7242;50.858;6.586;2023-06-24T13:33:15;3.07;;;2.30;;
14316;SDS011;7242;50.858;6.586;2023-06-24T13:36:27;4.13;;;2.20;;
14316;SDS011;7242;50.858;6.586;2023-06-24T13:39:30;3.33;;;2.13;;
14316;SDS011;7242;50.858;6.586;2023-06-24T13:42:32;6.20;;;2.13;;
14316;SDS011;7242;50.858;6.586;2023-06-24T13:45:33;5.37;;;2.27;;
14316;SDS011;7242;50.858;6.586;2023-06-24T13:48:34;2.23;;;2.03;;
14316;SDS011;7242;50.858;6.586;2023-06-24T13:51:35;2.20;;;1.87;;
14316;SDS011;7242;50.858;6.586;2023-06-24T13:54:36;4.07;;;1.90;;
14316;SDS011;7242;50.858;6.586;2023-06-24T13:57:37;2.10;;;1.90;;
14316;SDS011;7242;50.858;6.586;2023-06-24T14:00:38;2.10;;;1.90;;
14316;SDS011;7242;50.858;6.586;2023-06-24T14:03:39;3.60;;;1.80;;
14316;SDS011;7242;50.858;6.586;2023-06-24T14:06:41;2.23;;;1.83;;
14316;SDS011;7242;50.858;6.586;2023-06-24T14:09:43;3.30;;;2.10;;
14316;SDS011;7242;50.858;6.586;2023-06-24T14:12:43;2.17;;;1.77;;
14316;SDS011;7242;50.858;6.586;2023-06-24T14:15:44;5.10;;;1.93;;
14316;SDS011;7242;50.858;6.586;2023-06-24T14:18:45;3.13;;;1.70;;
14316;SDS011;7242;50.858;6.586;2023-06-24T14:21:46;3.40;;;1.83;;
14316;SDS011;7242;50.858;6.586;2023-06-24T14:24:48;1.80;;;1.70;;
14316;SDS011;7242;50.858;6.586;2023-06-24T14:27:48;1.90;;;1.70;;
14316;SDS011;7242;50.858;6.586;2023-06-24T14:30:50;2.13;;;1.73;;
14316;SDS011;7242;50.858;6.586;2023-06-24T14:33:51;2.07;;;1.70;;
14316;SDS011;7242;50.858;6.586;2023-06-24T14:36:52;2.83;;;1.87;;
14316;SDS011;7242;50.858;6.586;2023-06-24T14:39:52;1.90;;;1.80;;
14316;SDS011;7242;50.858;6.586;2023-06-24T14:42:53;3.40;;;1.80;;
14316;SDS011;7242;50.858;6.586;2023-06-24T14:45:54;1.80;;;1.53;;
14316;SDS011;7242;50.858;6.586;2023-06-24T14:48:55;2.60;;;1.90;;
14316;SDS011;7242;50.858;6.586;2023-06-24T14:51:56;2.57;;;1.73;;
14316;SDS011;7242;50.858;6.586;2023-06-24T14:54:56;2.27;;;1.97;;
14316;SDS011;7242;50.858;6.586;2023-06-24T14:57:57;2.73;;;2.20;;
14316;SDS011;7242;50.858;6.586;2023-06-24T15:00:58;2.57;;;1.60;;
14316;SDS011;7242;50.858;6.586;2023-06-24T15:03:59;2.93;;;1.70;;
14316;SDS011;7242;50.858;6.586;2023-06-24T15:06:59;2.90;;;1.50;;
14316;SDS011;7242;50.858;6.586;2023-06-24T15:10:01;2.47;;;1.80;;
14316;SDS011;7242;50.858;6.586;2023-06-24T15:13:01;2.30;;;1.77;;
14316;SDS011;7242;50.858;6.586;2023-06-24T15:16:02;2.70;;;1.70;;
14316;SDS011;7242;50.858;6.586;2023-06-24T15:19:03;2.20;;;2.00;;
14316;SDS011;7242;50.858;6.586;2023-06-24T15:22:04;1.70;;;1.60;;
14316;SDS011;7242;50.858;6.586;2023-06-24T15:25:05;1.93;;;1.70;;
14316;SDS011;7242;50.858;6.586;2023-06-24T15:28:06;2.10;;;1.90;;
14316;SDS011;7242;50.858;6.586;2023-06-24T15:31:07;2.30;;;1.60;;
14316;SDS011;7242;50.858;6.586;2023-06-24T15:34:07;2.47;;;1.87;;
14316;SDS011;7242;50.858;6.586;2023-06-24T15:37:11;2.33;;;1.90;;
14316;SDS011;7242;50.858;6.586;2023-06-24T15:40:14;1.90;;;1.80;;
14316;SDS011;7242;50.858;6.586;2023-06-24T15:43:15;2.30;;;1.50;;
14316;SDS011;7242;50.858;6.586;2023-06-24T15:46:16;3.00;;;1.90;;
14316;SDS011;7242;50.858;6.586;2023-06-24T15:49:16;2.57;;;1.70;;
14316;SDS011;7242;50.858;6.586;2023-06-24T15:52:17;2.57;;;1.77;;
14316;SDS011;7242;50.858;6.586;2023-06-24T15:55:19;2.50;;;1.50;;
14316;SDS011;7242;50.858;6.586;2023-06-24T15:58:20;3.10;;;1.70;;
14316;SDS011;7242;50.858;6.586;2023-06-24T16:01:21;1.77;;;1.67;;
14316;SDS011;7242;50.858;6.586;2023-06-24T16:04:22;1.67;;;1.57;;
14316;SDS011;7242;50.858;6.586;2023-06-24T16:07:23;1.97;;;1.60;;
14316;SDS011;7242;50.858;6.586;2023-06-24T16:10:23;2.43;;;1.90;;
14316;SDS011;7242;50.858;6.586;2023-06-24T16:13:24;2.50;;;1.60;;
14316;SDS011;7242;50.858;6.586;2023-06-24T16:16:25;1.93;;;1.80;;
14316;SDS011;7242;50.858;6.586;2023-06-24T16:19:26;1.90;;;1.57;;
14316;SDS011;7242;50.858;6.586;2023-06-24T16:22:28;1.70;;;1.53;;
14316;SDS011;7242;50.858;6.586;2023-06-24T16:25:29;2.67;;;1.60;;
14316;SDS011;7242;50.858;6.586;2023-06-24T16:28:32;1.90;;;1.70;;
14316;SDS011;7242;50.858;6.586;2023-06-24T16:31:33;2.50;;;1.60;;
14316;SDS011;7242;50.858;6.586;2023-06-24T16:34:33;1.77;;;1.67;;
14316;SDS011;7242;50.858;6.586;2023-06-24T16:37:34;1.83;;;1.67;;
14316;SDS011;7242;50.858;6.586;2023-06-24T16:40:35;4.23;;;1.80;;
14316;SDS011;7242;50.858;6.586;2023-06-24T16:43:36;2.17;;;1.70;;
14316;SDS011;7242;50.858;6.586;2023-06-24T16:46:37;1.83;;;1.73;;
14316;SDS011;7242;50.858;6.586;2023-06-24T16:49:38;1.90;;;1.70;;
14316;SDS011;7242;50.858;6.586;2023-06-24T16:52:39;1.80;;;1.70;;
14316;SDS011;7242;50.858;6.586;2023-06-24T16:55:40;1.93;;;1.60;;
14316;SDS011;7242;50.858;6.586;2023-06-24T16:58:40;2.00;;;1.67;;
14316;SDS011;7242;50.858;6.586;2023-06-24T17:01:42;2.73;;;1.70;;
14316;SDS011;7242;50.858;6.586;2023-06-24T17:04:42;2.10;;;1.90;;
14316;SDS011;7242;50.858;6.586;2023-06-24T17:07:43;1.70;;;1.60;;
14316;SDS011;7242;50.858;6.586;2023-06-24T17:10:44;3.00;;;1.80;;
14316;SDS011;7242;50.858;6.586;2023-06-24T17:13:45;2.53;;;1.73;;
14316;SDS011;7242;50.858;6.586;2023-06-24T17:16:46;2.23;;;1.60;;
14316;SDS011;7242;50.858;6.586;2023-06-24T17:19:46;2.40;;;1.80;;
14316;SDS011;7242;50.858;6.586;2023-06-24T17:22:47;2.10;;;1.80;;
14316;SDS011;7242;50.858;6.586;2023-06-24T17:25:48;2.03;;;1.83;;
14316;SDS011;7242;50.858;6.586;2023-06-24T17:28:49;1.77;;;1.67;;
14316;SDS011;7242;50.858;6.586;2023-06-24T17:31:50;1.90;;;1.60;;
14316;SDS011;7242;50.858;6.586;2023-06-24T17:34:51;2.60;;;1.83;;
14316;SDS011;7242;50.858;6.586;2023-06-24T17:37:52;1.70;;;1.60;;
14316;SDS011;7242;50.858;6.586;2023-06-24T17:40:53;1.87;;;1.67;;
14316;SDS011;7242;50.858;6.586;2023-06-24T17:43:53;2.23;;;1.87;;
14316;SDS011;7242;50.858;6.586;2023-06-24T17:46:54;2.00;;;1.80;;
14316;SDS011;7242;50.858;6.586;2023-06-24T17:49:55;1.57;;;1.40;;
14316;SDS011;7242;50.858;6.586;2023-06-24T17:52:56;2.40;;;1.80;;
14316;SDS011;7242;50.858;6.586;2023-06-24T17:55:57;2.00;;;1.80;;
14316;SDS011;7242;50.858;6.586;2023-06-24T17:58:58;2.07;;;1.87;;
14316;SDS011;7242;50.858;6.586;2023-06-24T18:01:59;2.73;;;1.80;;
14316;SDS011;7242;50.858;6.586;2023-06-24T18:05:01;1.70;;;1.50;;
14316;SDS011;7242;50.858;6.586;2023-06-24T18:08:02;3.10;;;1.70;;
14316;SDS011;7242;50.858;6.586;2023-06-24T18:11:03;2.70;;;2.00;;
14316;SDS011;7242;50.858;6.586;2023-06-24T18:14:04;2.10;;;1.90;;
14316;SDS011;7242;50.858;6.586;2023-06-24T18:17:05;1.70;;;1.60;;
14316;SDS011;7242;50.858;6.586;2023-06-24T18:20:06;2.63;;;1.70;;
14316;SDS011;7242;50.858;6.586;2023-06-24T18:23:07;6.03;;;5.47;;
14316;SDS011;7242;50.858;6.586;2023-06-24T18:26:08;43.63;;;39.60;;
14316;SDS011;7242;50.858;6.586;2023-06-24T18:29:09;32.70;;;29.67;;
14316;SDS011;7242;50.858;6.586;2023-06-24T18:32:10;5.93;;;4.90;;
14316;SDS011;7242;50.858;6.586;2023-06-24T18:35:11;4.67;;;4.23;;
14316;SDS011;7242;50.858;6.586;2023-06-24T18:38:12;5.90;;;5.40;;
14316;SDS011;7242;50.858;6.586;2023-06-24T18:41:13;15.83;;;14.43;;
14316;SDS011;7242;50.858;6.586;2023-06-24T18:44:13;16.80;;;15.40;;
14316;SDS011;7242;50.858;6.586;2023-06-24T18:47:14;9.57;;;8.60;;
14316;SDS011;7242;50.858;6.586;2023-06-24T18:50:15;5.30;;;4.90;;